sensor_id;sensor_type;location;lat;lon;timestamp;pressure;altitude;pressure_sealevel;temperature;humidity
2268;BME280;11052;43.338;25.502;2024-03-22T00:02:14;101018.41;;;5.10;100.00
2268;BME280;11052;43.338;25.502;2024-03-22T00:04:40;101019.25;;;5.05;100.00
2268;BME280;11052;43.338;25.502;2024-03-22T00:07:07;101017.47;;;4.91;100.00
2268;BME280;11052;43.338;25.502;2024-03-22T00:09:33;101030.19;;;4.70;100.00
2268;BME280;11052;43.338;25.502;2024-03-22T00:12:01;101030.19;;;4.67;100.00
2268;BME280;11052;43.338;25.502;2024-03-22T00:14:27;101025.03;;;4.63;100.00
2268;BME280;11052;43.338;25.502;2024-03-22T00:16:55;101030.97;;;4.57;100.00
2268;BME280;11052;43.338;25.502;2024-03-22T00:19:21;101025.84;;;4.57;100.00
2268;BME280;11052;43.338;25.502;2024-03-22T00:21:48;101031.72;;;4.39;100.00
2268;BME280;11052;43.338;25.502;2024-03-22T00:24:14;101032.38;;;4.09;100.00
2268;BME280;11052;43.338;25.502;2024-03-22T00:26:41;101032.28;;;4.00;100.00
2268;BME280;11052;43.338;25.502;2024-03-22T00:29:07;101033.16;;;4.02;100.00
2268;BME280;11052;43.338;25.502;2024-03-22T00:31:34;101035.69;;;3.98;100.00
2268;BME280;11052;43.338;25.502;2024-03-22T00:34:02;101043.41;;;4.01;100.00
2268;BME280;11052;43.338;25.502;2024-03-22T00:36:29;101044.25;;;3.98;100.00
2268;BME280;11052;43.338;25.502;2024-03-22T00:38:55;101048.53;;;3.99;100.00
2268;BME280;11052;43.338;25.502;2024-03-22T00:41:22;101039.13;;;3.98;100.00
2268;BME280;11052;43.338;25.502;2024-03-22T00:43:48;101048.50;;;3.96;100.00
2268;BME280;11052;43.338;25.502;2024-03-22T00:46:15;101041.56;;;3.84;100.00
2268;BME280;11052;43.338;25.502;2024-03-22T00:48:41;101042.44;;;3.86;100.00
2268;BME280;11052;43.338;25.502;2024-03-22T00:51:10;101046.59;;;3.75;100.00
2268;BME280;11052;43.338;25.502;2024-03-22T00:53:36;101045.56;;;3.56;100.00
2268;BME280;11052;43.338;25.502;2024-03-22T00:56:03;101053.22;;;3.55;100.00
2268;BME280;11052;43.338;25.502;2024-03-22T00:58:29;101050.66;;;3.55;100.00
2268;BME280;11052;43.338;25.502;2024-03-22T01:00:57;101047.25;;;3.54;100.00
2268;BME280;11052;43.338;25.502;2024-03-22T01:03:23;101048.88;;;3.49;100.00
2268;BME280;11052;43.338;25.502;2024-03-22T01:05:50;101050.47;;;3.34;100.00
2268;BME280;11052;43.338;25.502;2024-03-22T01:08:17;101041.84;;;3.28;100.00
2268;BME280;11052;43.338;25.502;2024-03-22T01:10:45;101047.69;;;3.15;100.00
2268;BME280;11052;43.338;25.502;2024-03-22T01:13:11;101039.94;;;3.11;100.00
2268;BME280;11052;43.338;25.502;2024-03-22T01:15:38;101038.75;;;2.84;100.00
2268;BME280;11052;43.338;25.502;2024-03-22T01:18:04;101036.22;;;2.87;100.00
2268;BME280;11052;43.338;25.502;2024-03-22T01:20:31;101037.97;;;2.91;100.00
2268;BME280;11052;43.338;25.502;2024-03-22T01:22:59;101036.19;;;2.84;100.00
2268;BME280;11052;43.338;25.502;2024-03-22T01:25:27;101041.34;;;2.87;100.00
2268;BME280;11052;43.338;25.502;2024-03-22T01:27:54;101042.78;;;2.67;100.00
2268;BME280;11052;43.338;25.502;2024-03-22T01:30:22;101043.72;;;2.75;100.00
2268;BME280;11052;43.338;25.502;2024-03-22T01:32:48;101037.59;;;2.62;100.00
2268;BME280;11052;43.338;25.502;2024-03-22T01:35:15;101042.69;;;2.62;100.00
2268;BME280;11052;43.338;25.502;2024-03-22T01:37:41;101041.84;;;2.62;100.00
2268;BME280;11052;43.338;25.502;2024-03-22T01:40:10;101047.69;;;2.52;100.00
2268;BME280;11052;43.338;25.502;2024-03-22T01:42:37;101043.44;;;2.52;100.00
2268;BME280;11052;43.338;25.502;2024-03-22T01:45:05;101037.25;;;2.38;100.00
2268;BME280;11052;43.338;25.502;2024-03-22T01:47:31;101042.41;;;2.41;100.00
2268;BME280;11052;43.338;25.502;2024-03-22T01:49:58;101043.94;;;2.30;100.00
2268;BME280;11052;43.338;25.502;2024-03-22T01:52:24;101036.22;;;2.27;100.00
2268;BME280;11052;43.338;25.502;2024-03-22T01:54:52;101041.25;;;2.21;100.00
2268;BME280;11052;43.338;25.502;2024-03-22T01:57:18;101042.84;;;2.14;100.00
2268;BME280;11052;43.338;25.502;2024-03-22T01:59:49;101046.34;;;2.19;100.00
2268;BME280;11052;43.338;25.502;2024-03-22T02:02:17;101045.59;;;2.26;100.00
2268;BME280;11052;43.338;25.502;2024-03-22T02:04:44;101043.03;;;2.26;100.00
2268;BME280;11052;43.338;25.502;2024-03-22T02:07:10;101041.31;;;2.25;100.00
2268;BME280;11052;43.338;25.502;2024-03-22T02:09:37;101048.31;;;1.84;100.00
2268;BME280;11052;43.338;25.502;2024-03-22T02:12:04;101043.22;;;1.86;100.00
2268;BME280;11052;43.338;25.502;2024-03-22T02:14:31;101043.22;;;1.86;100.00
2268;BME280;11052;43.338;25.502;2024-03-22T02:16:58;101038.88;;;1.80;100.00
2268;BME280;11052;43.338;25.502;2024-03-22T02:19:25;101040.75;;;1.90;100.00
2268;BME280;11052;43.338;25.502;2024-03-22T02:21:51;101050.97;;;1.90;100.00
2268;BME280;11052;43.338;25.502;2024-03-22T02:24:20;101043.38;;;1.95;100.00
2268;BME280;11052;43.338;25.502;2024-03-22T02:26:46;101037.53;;;2.02;100.00
2268;BME280;11052;43.338;25.502;2024-03-22T02:29:13;101046.84;;;1.98;100.00
2268;BME280;11052;43.338;25.502;2024-03-22T02:31:39;101043.28;;;1.89;100.00
2268;BME280;11052;43.338;25.502;2024-03-22T02:34:06;101049.22;;;1.88;100.00
2268;BME280;11052;43.338;25.502;2024-03-22T02:36:32;101046.66;;;1.88;100.00
2268;BME280;11052;43.338;25.502;2024-03-22T02:38:59;101052.53;;;1.82;100.00
2268;BME280;11052;43.338;25.502;2024-03-22T02:41:27;101057.63;;;1.81;100.00
2268;BME280;11052;43.338;25.502;2024-03-22T02:43:54;101053.34;;;1.80;100.00
2268;BME280;11052;43.338;25.502;2024-03-22T02:46:20;101067.72;;;1.73;100.00
2268;BME280;11052;43.338;25.502;2024-03-22T02:48:47;101067.72;;;1.73;100.00
2268;BME280;11052;43.338;25.502;2024-03-22T02:51:13;101065.34;;;1.84;100.00
2268;BME280;11052;43.338;25.502;2024-03-22T02:53:40;101072.94;;;1.81;100.00
2268;BME280;11052;43.338;25.502;2024-03-22T02:56:06;101075.38;;;1.72;100.00
2268;BME280;11052;43.338;25.502;2024-03-22T02:58:36;101071.19;;;1.77;100.00
2268;BME280;11052;43.338;25.502;2024-03-22T03:01:02;101073.69;;;1.74;100.00
2268;BME280;11052;43.338;25.502;2024-03-22T03:03:31;101080.53;;;1.76;100.00
2268;BME280;11052;43.338;25.502;2024-03-22T03:05:57;101081.38;;;1.75;100.00
2268;BME280;11052;43.338;25.502;2024-03-22T03:08:24;101073.69;;;1.72;100.00
2268;BME280;11052;43.338;25.502;2024-03-22T03:10:50;101080.44;;;1.69;100.00
2268;BME280;11052;43.338;25.502;2024-03-22T03:13:17;101082.94;;;1.66;100.00
2268;BME280;11052;43.338;25.502;2024-03-22T03:15:45;101078.59;;;1.61;100.00
2268;BME280;11052;43.338;25.502;2024-03-22T03:18:12;101076.09;;;1.64;100.00
2268;BME280;11052;43.338;25.502;2024-03-22T03:20:38;101082.75;;;1.56;100.00
2268;BME280;11052;43.338;25.502;2024-03-22T03:23:05;101081.69;;;1.45;100.00
2268;BME280;11052;43.338;25.502;2024-03-22T03:25:31;101086.72;;;1.42;100.00
2268;BME280;11052;43.338;25.502;2024-03-22T03:27:58;101091.91;;;1.45;100.00
2268;BME280;11052;43.338;25.502;2024-03-22T03:30:24;101096.97;;;1.44;100.00
2268;BME280;11052;43.338;25.502;2024-03-22T03:32:53;101094.34;;;1.39;100.00
2268;BME280;11052;43.338;25.502;2024-03-22T03:35:19;101095.84;;;1.29;100.00
2268;BME280;11052;43.338;25.502;2024-03-22T03:37:46;101100.28;;;1.38;100.00
2268;BME280;11052;43.338;25.502;2024-03-22T03:40:12;101105.44;;;1.41;100.00
2268;BME280;11052;43.338;25.502;2024-03-22T03:42:39;101099.38;;;1.36;100.00
2268;BME280;11052;43.338;25.502;2024-03-22T03:45:06;101112.03;;;1.30;100.00
2268;BME280;11052;43.338;25.502;2024-03-22T03:47:33;101111.34;;;1.39;100.00
2268;BME280;11052;43.338;25.502;2024-03-22T03:50:01;101102.94;;;1.44;100.00
2268;BME280;11052;43.338;25.502;2024-03-22T03:52:28;101104.72;;;1.48;100.00
2268;BME280;11052;43.338;25.502;2024-03-22T03:54:54;101106.41;;;1.46;100.00
2268;BME280;11052;43.338;25.502;2024-03-22T03:57:21;101103.16;;;1.13;100.00
2268;BME280;11052;43.338;25.502;2024-03-22T03:59:47;101105.34;;;0.96;100.00
2268;BME280;11052;43.338;25.502;2024-03-22T04:02:14;101107.03;;;0.95;100.00
2268;BME280;11052;43.338;25.502;2024-03-22T04:04:40;101115.06;;;0.73;100.00
2268;BME280;11052;43.338;25.502;2024-03-22T04:07:09;101112.19;;;0.59;100.00
2268;BME280;11052;43.338;25.502;2024-03-22T04:09:35;101116.78;;;0.74;100.00
2268;BME280;11052;43.338;25.502;2024-03-22T04:12:02;101120.22;;;0.76;100.00
2268;BME280;11052;43.338;25.502;2024-03-22T04:14:28;101123.81;;;0.84;100.00
2268;BME280;11052;43.338;25.502;2024-03-22T04:16:55;101116.31;;;0.92;100.00
2268;BME280;11052;43.338;25.502;2024-03-22T04:19:21;101128.19;;;0.91;100.00
2268;BME280;11052;43.338;25.502;2024-03-22T04:21:50;101137.59;;;0.92;100.00
2268;BME280;11052;43.338;25.502;2024-03-22T04:24:17;101135.75;;;0.87;100.00
2268;BME280;11052;43.338;25.502;2024-03-22T04:26:44;101140.09;;;0.91;100.00
2268;BME280;11052;43.338;25.502;2024-03-22T04:29:10;101140.28;;;0.98;100.00
2268;BME280;11052;43.338;25.502;2024-03-22T04:31:37;101139.31;;;0.93;100.00
2268;BME280;11052;43.338;25.502;2024-03-22T04:34:06;101137.56;;;0.91;100.00
2268;BME280;11052;43.338;25.502;2024-03-22T04:36:33;101141.97;;;0.98;100.00
2268;BME280;11052;43.338;25.502;2024-03-22T04:38:59;101128.41;;;1.01;100.00
2268;BME280;11052;43.338;25.502;2024-03-22T04:41:28;101136.41;;;1.16;100.00
2268;BME280;11052;43.338;25.502;2024-03-22T04:43:55;101139.47;;;1.40;100.00
2268;BME280;11052;43.338;25.502;2024-03-22T04:46:22;101150.16;;;1.63;100.00
2268;BME280;11052;43.338;25.502;2024-03-22T04:48:48;101147.28;;;1.91;100.00
2268;BME280;11052;43.338;25.502;2024-03-22T04:51:15;101142.00;;;2.29;100.00
2268;BME280;11052;43.338;25.502;2024-03-22T04:53:41;101137.47;;;2.67;100.00
2268;BME280;11052;43.338;25.502;2024-03-22T04:56:09;101143.97;;;3.03;100.00
2268;BME280;11052;43.338;25.502;2024-03-22T04:58:37;101143.59;;;3.37;100.00
2268;BME280;11052;43.338;25.502;2024-03-22T05:01:04;101150.88;;;3.75;100.00
2268;BME280;11052;43.338;25.502;2024-03-22T05:03:30;101152.94;;;4.08;100.00
2268;BME280;11052;43.338;25.502;2024-03-22T05:05:57;101155.84;;;4.46;100.00
2268;BME280;11052;43.338;25.502;2024-03-22T05:08:23;101154.41;;;4.81;100.00
2268;BME280;11052;43.338;25.502;2024-03-22T05:10:50;101151.97;;;5.03;100.00
2268;BME280;11052;43.338;25.502;2024-03-22T05:13:18;101160.69;;;5.31;100.00
2268;BME280;11052;43.338;25.502;2024-03-22T05:15:47;101164.19;;;5.45;100.00
2268;BME280;11052;43.338;25.502;2024-03-22T05:18:13;101162.53;;;5.57;100.00
2268;BME280;11052;43.338;25.502;2024-03-22T05:20:40;101155.69;;;5.61;100.00
2268;BME280;11052;43.338;25.502;2024-03-22T05:23:06;101158.28;;;5.69;100.00
2268;BME280;11052;43.338;25.502;2024-03-22T05:25:34;101163.47;;;5.81;100.00
2268;BME280;11052;43.338;25.502;2024-03-22T05:28:00;101163.56;;;5.98;100.00
2268;BME280;11052;43.338;25.502;2024-03-22T05:30:27;101169.56;;;6.09;100.00
2268;BME280;11052;43.338;25.502;2024-03-22T05:32:54;101157.56;;;6.08;100.00
2268;BME280;11052;43.338;25.502;2024-03-22T05:35:21;101164.41;;;6.10;100.00
2268;BME280;11052;43.338;25.502;2024-03-22T05:37:48;101178.16;;;6.09;100.00
2268;BME280;11052;43.338;25.502;2024-03-22T05:40:15;101172.19;;;6.27;100.00
2268;BME280;11052;43.338;25.502;2024-03-22T05:42:42;101171.34;;;6.65;100.00
2268;BME280;11052;43.338;25.502;2024-03-22T05:45:09;101171.34;;;6.83;100.00
2268;BME280;11052;43.338;25.502;2024-03-22T05:47:36;101173.88;;;6.98;100.00
2268;BME280;11052;43.338;25.502;2024-03-22T05:50:05;101177.31;;;6.94;100.00
2268;BME280;11052;43.338;25.502;2024-03-22T05:52:34;101185.91;;;7.04;100.00
2268;BME280;11052;43.338;25.502;2024-03-22T05:55:00;101180.69;;;7.40;100.00
2268;BME280;11052;43.338;25.502;2024-03-22T05:57:27;101184.88;;;7.73;100.00
2268;BME280;11052;43.338;25.502;2024-03-22T05:59:53;101187.25;;;8.05;100.00
2268;BME280;11052;43.338;25.502;2024-03-22T06:02:20;101194.94;;;8.19;100.00
2268;BME280;11052;43.338;25.502;2024-03-22T06:04:46;101188.66;;;8.60;98.74
2268;BME280;11052;43.338;25.502;2024-03-22T06:07:14;101190.22;;;8.76;98.46
2268;BME280;11052;43.338;25.502;2024-03-22T06:09:42;101189.34;;;8.80;100.00
2268;BME280;11052;43.338;25.502;2024-03-22T06:12:12;101197.00;;;8.91;99.56
2268;BME280;11052;43.338;25.502;2024-03-22T06:14:39;101191.56;;;9.18;96.60
2268;BME280;11052;43.338;25.502;2024-03-22T06:17:06;101193.22;;;9.27;90.92
2268;BME280;11052;43.338;25.502;2024-03-22T06:19:32;101193.19;;;9.30;91.08
2268;BME280;11052;43.338;25.502;2024-03-22T06:21:59;101197.03;;;9.67;91.07
2268;BME280;11052;43.338;25.502;2024-03-22T06:24:27;101200.13;;;9.97;89.80
2268;BME280;11052;43.338;25.502;2024-03-22T06:26:54;101205.34;;;9.95;86.99
2268;BME280;11052;43.338;25.502;2024-03-22T06:29:20;101201.50;;;9.54;87.32
2268;BME280;11052;43.338;25.502;2024-03-22T06:31:47;101202.72;;;9.23;89.14
2268;BME280;11052;43.338;25.502;2024-03-22T06:34:15;101197.09;;;9.64;88.29
2268;BME280;11052;43.338;25.502;2024-03-22T06:36:43;101200.91;;;10.03;88.17
2268;BME280;11052;43.338;25.502;2024-03-22T06:39:08;101196.56;;;10.65;86.22
2268;BME280;11052;43.338;25.502;2024-03-22T06:41:37;101198.75;;;10.90;85.89
2268;BME280;11052;43.338;25.502;2024-03-22T06:44:03;101198.94;;;10.79;84.79
2268;BME280;11052;43.338;25.502;2024-03-22T06:46:30;101202.97;;;10.95;82.80
2268;BME280;11052;43.338;25.502;2024-03-22T06:48:57;101205.09;;;11.23;83.15
2268;BME280;11052;43.338;25.502;2024-03-22T06:51:24;101195.63;;;11.20;79.60
2268;BME280;11052;43.338;25.502;2024-03-22T06:53:50;101203.19;;;11.31;80.27
2268;BME280;11052;43.338;25.502;2024-03-22T06:56:17;101202.56;;;11.63;78.81
2268;BME280;11052;43.338;25.502;2024-03-22T06:58:45;101204.91;;;11.75;80.51
2268;BME280;11052;43.338;25.502;2024-03-22T07:01:12;101205.34;;;11.98;75.70
2268;BME280;11052;43.338;25.502;2024-03-22T07:03:38;101210.25;;;11.69;75.82
2268;BME280;11052;43.338;25.502;2024-03-22T07:06:05;101216.63;;;11.53;78.64
2268;BME280;11052;43.338;25.502;2024-03-22T07:08:33;101209.06;;;11.40;75.25
2268;BME280;11052;43.338;25.502;2024-03-22T07:11:05;101213.84;;;11.62;75.21
2268;BME280;11052;43.338;25.502;2024-03-22T07:13:31;101215.66;;;11.58;74.73
2268;BME280;11052;43.338;25.502;2024-03-22T07:16:00;101212.13;;;12.05;75.53
2268;BME280;11052;43.338;25.502;2024-03-22T07:18:26;101214.66;;;12.45;72.96
2268;BME280;11052;43.338;25.502;2024-03-22T07:20:53;101212.22;;;12.75;70.90
2268;BME280;11052;43.338;25.502;2024-03-22T07:23:19;101214.97;;;13.03;74.12
2268;BME280;11052;43.338;25.502;2024-03-22T07:25:46;101214.09;;;13.69;69.66
2268;BME280;11052;43.338;25.502;2024-03-22T07:28:13;101216.69;;;13.98;67.45
2268;BME280;11052;43.338;25.502;2024-03-22T07:30:41;101225.13;;;13.78;66.14
2268;BME280;11052;43.338;25.502;2024-03-22T07:33:10;101219.50;;;13.30;66.81
2268;BME280;11052;43.338;25.502;2024-03-22T07:35:38;101222.16;;;12.95;66.75
2268;BME280;11052;43.338;25.502;2024-03-22T07:38:04;101229.47;;;12.42;68.96
2268;BME280;11052;43.338;25.502;2024-03-22T07:40:32;101234.28;;;12.59;69.83
2268;BME280;11052;43.338;25.502;2024-03-22T07:42:59;101232.38;;;12.28;67.55
2268;BME280;11052;43.338;25.502;2024-03-22T07:45:31;101225.34;;;12.33;71.21
2268;BME280;11052;43.338;25.502;2024-03-22T07:47:57;101226.16;;;12.35;73.55
2268;BME280;11052;43.338;25.502;2024-03-22T07:50:26;101227.53;;;11.70;73.43
2268;BME280;11052;43.338;25.502;2024-03-22T07:52:52;101226.44;;;11.83;72.34
2268;BME280;11052;43.338;25.502;2024-03-22T07:55:19;101225.75;;;11.72;69.64
2268;BME280;11052;43.338;25.502;2024-03-22T07:57:45;101222.78;;;11.92;74.23
2268;BME280;11052;43.338;25.502;2024-03-22T08:00:13;101218.81;;;12.53;73.63
2268;BME280;11052;43.338;25.502;2024-03-22T08:02:39;101225.59;;;12.60;69.63
2268;BME280;11052;43.338;25.502;2024-03-22T08:05:07;101220.00;;;12.01;72.27
2268;BME280;11052;43.338;25.502;2024-03-22T08:07:34;101217.41;;;12.01;71.72
2268;BME280;11052;43.338;25.502;2024-03-22T08:10:01;101224.38;;;11.99;72.46
2268;BME280;11052;43.338;25.502;2024-03-22T08:12:28;101222.63;;;11.55;73.96
2268;BME280;11052;43.338;25.502;2024-03-22T08:14:55;101222.69;;;11.96;74.20
2268;BME280;11052;43.338;25.502;2024-03-22T08:17:21;101220.13;;;11.95;67.52
2268;BME280;11052;43.338;25.502;2024-03-22T08:19:48;101224.28;;;12.03;67.66
2268;BME280;11052;43.338;25.502;2024-03-22T08:22:15;101226.59;;;12.15;69.15
2268;BME280;11052;43.338;25.502;2024-03-22T08:24:42;101222.91;;;12.26;66.69
2268;BME280;11052;43.338;25.502;2024-03-22T08:27:10;101221.72;;;12.40;66.23
2268;BME280;11052;43.338;25.502;2024-03-22T08:29:36;101226.56;;;12.17;69.30
2268;BME280;11052;43.338;25.502;2024-03-22T08:32:04;101230.91;;;11.75;69.73
2268;BME280;11052;43.338;25.502;2024-03-22T08:34:30;101221.28;;;12.20;72.07
2268;BME280;11052;43.338;25.502;2024-03-22T08:36:57;101220.50;;;12.55;69.26
2268;BME280;11052;43.338;25.502;2024-03-22T08:39:23;101219.25;;;12.34;67.12
2268;BME280;11052;43.338;25.502;2024-03-22T08:41:52;101213.94;;;12.00;69.60
2268;BME280;11052;43.338;25.502;2024-03-22T08:44:18;101217.66;;;11.89;72.68
2268;BME280;11052;43.338;25.502;2024-03-22T08:46:45;101223.75;;;12.26;71.49
2268;BME280;11052;43.338;25.502;2024-03-22T08:49:11;101216.41;;;12.45;73.04
2268;BME280;11052;43.338;25.502;2024-03-22T08:51:39;101216.44;;;12.80;68.51
2268;BME280;11052;43.338;25.502;2024-03-22T08:54:05;101216.09;;;12.94;68.39
2268;BME280;11052;43.338;25.502;2024-03-22T08:56:32;101212.63;;;12.94;69.99
2268;BME280;11052;43.338;25.502;2024-03-22T08:59:00;101213.03;;;13.11;71.31
2268;BME280;11052;43.338;25.502;2024-03-22T09:01:27;101204.34;;;13.10;69.66
2268;BME280;11052;43.338;25.502;2024-03-22T09:03:53;101200.22;;;13.68;67.40
2268;BME280;11052;43.338;25.502;2024-03-22T09:06:20;101191.09;;;13.83;63.88
2268;BME280;11052;43.338;25.502;2024-03-22T09:08:47;101194.53;;;13.85;68.29
2268;BME280;11052;43.338;25.502;2024-03-22T09:11:14;101196.97;;;13.90;67.38
2268;BME280;11052;43.338;25.502;2024-03-22T09:13:40;101193.78;;;13.51;66.66
2268;BME280;11052;43.338;25.502;2024-03-22T09:16:08;101192.66;;;13.59;66.70
2268;BME280;11052;43.338;25.502;2024-03-22T09:18:34;101184.78;;;13.90;69.82
2268;BME280;11052;43.338;25.502;2024-03-22T09:21:02;101186.72;;;14.13;70.66
2268;BME280;11052;43.338;25.502;2024-03-22T09:23:28;101179.75;;;13.86;65.04
2268;BME280;11052;43.338;25.502;2024-03-22T09:25:55;101178.34;;;14.02;65.94
2268;BME280;11052;43.338;25.502;2024-03-22T09:28:21;101176.09;;;14.19;66.27
2268;BME280;11052;43.338;25.502;2024-03-22T09:30:48;101172.63;;;14.19;65.08
2268;BME280;11052;43.338;25.502;2024-03-22T09:33:15;101177.53;;;14.00;63.91
2268;BME280;11052;43.338;25.502;2024-03-22T09:35:43;101175.66;;;14.05;64.51
2268;BME280;11052;43.338;25.502;2024-03-22T09:38:09;101177.00;;;14.18;64.47
2268;BME280;11052;43.338;25.502;2024-03-22T09:40:38;101173.91;;;13.77;63.47
2268;BME280;11052;43.338;25.502;2024-03-22T09:43:06;101180.97;;;13.43;65.44
2268;BME280;11052;43.338;25.502;2024-03-22T09:45:34;101171.78;;;13.89;67.88
2268;BME280;11052;43.338;25.502;2024-03-22T09:48:00;101168.94;;;14.26;65.02
2268;BME280;11052;43.338;25.502;2024-03-22T09:50:29;101163.09;;;14.18;64.50
2268;BME280;11052;43.338;25.502;2024-03-22T09:52:56;101162.22;;;14.47;66.87
2268;BME280;11052;43.338;25.502;2024-03-22T09:55:24;101161.00;;;14.57;66.82
2268;BME280;11052;43.338;25.502;2024-03-22T09:57:50;101154.31;;;14.74;66.89
2268;BME280;11052;43.338;25.502;2024-03-22T10:00:19;101139.72;;;14.94;64.13
2268;BME280;11052;43.338;25.502;2024-03-22T10:02:48;101147.25;;;15.03;63.16
2268;BME280;11052;43.338;25.502;2024-03-22T10:05:16;101151.22;;;14.88;61.93
2268;BME280;11052;43.338;25.502;2024-03-22T10:07:44;101148.63;;;14.88;63.35
2268;BME280;11052;43.338;25.502;2024-03-22T10:10:11;101145.06;;;14.91;62.38
2268;BME280;11052;43.338;25.502;2024-03-22T10:12:39;101145.59;;;15.00;62.86
2268;BME280;11052;43.338;25.502;2024-03-22T10:15:06;101144.94;;;14.15;60.48
2268;BME280;11052;43.338;25.502;2024-03-22T10:17:34;101142.28;;;13.88;63.92
2268;BME280;11052;43.338;25.502;2024-03-22T10:20:01;101138.50;;;13.70;63.90
2268;BME280;11052;43.338;25.502;2024-03-22T10:22:28;101141.28;;;13.92;65.98
2268;BME280;11052;43.338;25.502;2024-03-22T10:24:56;101132.19;;;13.77;64.11
2268;BME280;11052;43.338;25.502;2024-03-22T10:27:27;101130.81;;;13.66;67.96
2268;BME280;11052;43.338;25.502;2024-03-22T10:29:54;101125.16;;;13.52;67.16
2268;BME280;11052;43.338;25.502;2024-03-22T10:32:21;101125.63;;;13.92;67.75
2268;BME280;11052;43.338;25.502;2024-03-22T10:34:50;101126.06;;;14.06;64.10
2268;BME280;11052;43.338;25.502;2024-03-22T10:37:16;101116.63;;;14.30;66.86
2268;BME280;11052;43.338;25.502;2024-03-22T10:39:46;101122.50;;;14.37;66.21
2268;BME280;11052;43.338;25.502;2024-03-22T10:42:16;101109.44;;;14.65;67.90
2268;BME280;11052;43.338;25.502;2024-03-22T10:44:44;101114.72;;;15.12;62.25
2268;BME280;11052;43.338;25.502;2024-03-22T10:47:11;101110.09;;;14.95;62.93
2268;BME280;11052;43.338;25.502;2024-03-22T10:49:39;101102.16;;;14.98;63.69
2268;BME280;11052;43.338;25.502;2024-03-22T10:52:08;101103.53;;;15.08;64.91
2268;BME280;11052;43.338;25.502;2024-03-22T10:54:39;101094.56;;;15.15;61.55
2268;BME280;11052;43.338;25.502;2024-03-22T10:57:07;101090.75;;;15.00;61.15
2268;BME280;11052;43.338;25.502;2024-03-22T10:59:40;101084.91;;;14.94;62.27
2268;BME280;11052;43.338;25.502;2024-03-22T11:02:07;101079.34;;;15.03;60.19
2268;BME280;11052;43.338;25.502;2024-03-22T11:04:37;101073.59;;;14.93;64.24
2268;BME280;11052;43.338;25.502;2024-03-22T11:07:03;101078.34;;;14.82;61.49
2268;BME280;11052;43.338;25.502;2024-03-22T11:09:30;101076.34;;;15.14;60.77
2268;BME280;11052;43.338;25.502;2024-03-22T11:11:56;101066.91;;;15.58;65.89
2268;BME280;11052;43.338;25.502;2024-03-22T11:14:24;101064.53;;;15.03;59.91
2268;BME280;11052;43.338;25.502;2024-03-22T11:16:52;101063.63;;;15.04;58.81
2268;BME280;11052;43.338;25.502;2024-03-22T11:19:19;101062.91;;;14.76;57.94
2268;BME280;11052;43.338;25.502;2024-03-22T11:21:45;101055.44;;;14.90;59.05
2268;BME280;11052;43.338;25.502;2024-03-22T11:24:13;101049.41;;;14.65;58.63
2268;BME280;11052;43.338;25.502;2024-03-22T11:26:39;101040.69;;;14.89;59.80
2268;BME280;11052;43.338;25.502;2024-03-22T11:29:06;101048.53;;;15.13;58.81
2268;BME280;11052;43.338;25.502;2024-03-22T11:31:33;101034.38;;;15.41;61.99
2268;BME280;11052;43.338;25.502;2024-03-22T11:34:02;101029.13;;;15.65;59.63
2268;BME280;11052;43.338;25.502;2024-03-22T11:36:28;101030.63;;;15.92;60.46
2268;BME280;11052;43.338;25.502;2024-03-22T11:38:56;101025.41;;;15.70;58.34
2268;BME280;11052;43.338;25.502;2024-03-22T11:41:25;101017.94;;;15.16;57.57
2268;BME280;11052;43.338;25.502;2024-03-22T11:43:53;101022.91;;;14.99;59.69
2268;BME280;11052;43.338;25.502;2024-03-22T11:46:20;101010.53;;;14.81;58.57
2268;BME280;11052;43.338;25.502;2024-03-22T11:48:51;101007.19;;;15.00;61.46
2268;BME280;11052;43.338;25.502;2024-03-22T11:51:18;101005.31;;;15.04;56.91
2268;BME280;11052;43.338;25.502;2024-03-22T11:53:49;101000.56;;;14.92;60.27
2268;BME280;11052;43.338;25.502;2024-03-22T11:56:18;100993.06;;;15.29;59.33
2268;BME280;11052;43.338;25.502;2024-03-22T11:58:46;100998.03;;;15.59;59.05
2268;BME280;11052;43.338;25.502;2024-03-22T12:01:13;100991.63;;;15.66;58.07
2268;BME280;11052;43.338;25.502;2024-03-22T12:03:43;100992.72;;;15.15;56.71
2268;BME280;11052;43.338;25.502;2024-03-22T12:06:10;100992.09;;;15.32;58.70
2268;BME280;11052;43.338;25.502;2024-03-22T12:08:39;100990.59;;;15.48;56.54
2268;BME280;11052;43.338;25.502;2024-03-22T12:11:07;100991.06;;;15.13;56.03
2268;BME280;11052;43.338;25.502;2024-03-22T12:13:34;100989.72;;;15.26;57.91
2268;BME280;11052;43.338;25.502;2024-03-22T12:16:01;100985.84;;;14.89;60.12
2268;BME280;11052;43.338;25.502;2024-03-22T12:18:28;100984.59;;;14.99;59.32
2268;BME280;11052;43.338;25.502;2024-03-22T12:20:54;100984.09;;;15.13;58.94
2268;BME280;11052;43.338;25.502;2024-03-22T12:23:21;100982.63;;;14.83;57.67
2268;BME280;11052;43.338;25.502;2024-03-22T12:25:50;100982.69;;;14.81;58.55
2268;BME280;11052;43.338;25.502;2024-03-22T12:28:17;100980.44;;;14.72;59.70
2268;BME280;11052;43.338;25.502;2024-03-22T12:30:43;100978.53;;;14.75;59.24
2268;BME280;11052;43.338;25.502;2024-03-22T12:33:10;100970.84;;;14.72;60.54
2268;BME280;11052;43.338;25.502;2024-03-22T12:35:36;100975.63;;;14.83;60.52
2268;BME280;11052;43.338;25.502;2024-03-22T12:38:04;100964.81;;;14.94;58.71
2268;BME280;11052;43.338;25.502;2024-03-22T12:40:30;100962.97;;;14.96;58.68
2268;BME280;11052;43.338;25.502;2024-03-22T12:42:59;100956.06;;;14.95;57.87
2268;BME280;11052;43.338;25.502;2024-03-22T12:45:25;100968.66;;;15.07;59.48
2268;BME280;11052;43.338;25.502;2024-03-22T12:47:52;100957.81;;;14.94;59.79
2268;BME280;11052;43.338;25.502;2024-03-22T12:50:19;100956.22;;;15.14;60.06